Time;durP1;ratioP1;P1;durP2;ratioP2;P2;SDS_P1;SDS_P2;PMS_P1;PMS_P2;Temp;Humidity;BMP_temperature;BMP_pressure;BME280_temperature;BME280_humidity;BME280_pressure;Samples;Min_cycle;Max_cycle;Signal;HPM_P1;HPM_P2
2023/10/30 00:00:18;;;;;;;15.82;2.45;;;;;;;9.45;100.00;99730.81;4988697;28;20097;-74
2023/10/30 00:02:43;;;;;;;8.07;2.08;;;;;;;9.48;100.00;99731.56;4987430;28;20042;-74
2023/10/30 00:05:09;;;;;;;10.02;1.90;;;;;;;9.50;100.00;99741.28;4993627;28;20419;-73
2023/10/30 00:07:34;;;;;;;10.88;2.13;;;;;;;9.49;100.00;99739.56;5008785;28;20457;-74
2023/10/30 00:10:00;;;;;;;12.57;1.70;;;;;;;9.51;100.00;99739.41;4989875;28;20097;-74
2023/10/30 00:12:25;;;;;;;6.85;1.88;;;;;;;9.52;100.00;99743.88;4989502;28;20512;-74
2023/10/30 00:14:50;;;;;;;9.18;2.33;;;;;;;9.46;100.00;99739.81;5004270;28;20483;-72
2023/10/30 00:17:16;;;;;;;7.65;1.80;;;;;;;9.49;100.00;99755.00;5006257;28;20442;-74
2023/10/30 00:19:42;;;;;;;11.45;2.30;;;;;;;9.50;100.00;99754.84;4998586;28;20041;-74
2023/10/30 00:22:11;;;;;;;7.70;1.52;;;;;;;9.51;100.00;99753.84;4989307;28;20044;-74
2023/10/30 00:24:37;;;;;;;8.38;1.98;;;;;;;9.52;100.00;99765.59;4989416;28;20088;-74
2023/10/30 00:27:02;;;;;;;9.98;2.00;;;;;;;9.49;100.00;99766.72;4989055;28;20030;-74
2023/10/30 00:29:27;;;;;;;7.43;2.28;;;;;;;9.53;100.00;99783.59;4991109;28;20046;-74
2023/10/30 00:31:53;;;;;;;9.02;1.90;;;;;;;9.52;100.00;99780.03;5008820;28;20046;-74
2023/10/30 00:34:18;;;;;;;10.55;1.73;;;;;;;9.51;100.00;99789.13;5000390;28;20062;-73
2023/10/30 00:36:44;;;;;;;12.05;3.17;;;;;;;9.52;100.00;99787.31;4988937;28;20084;-74
2023/10/30 00:39:09;;;;;;;14.52;2.05;;;;;;;9.47;100.00;99784.13;4988727;28;20054;-74
2023/10/30 00:41:34;;;;;;;13.75;3.83;;;;;;;9.45;100.00;99782.38;4987906;28;20156;-74
2023/10/30 00:44:00;;;;;;;9.65;1.80;;;;;;;9.46;100.00;99791.38;4988142;28;20041;-74
2023/10/30 00:46:25;;;;;;;6.85;1.88;;;;;;;9.45;100.00;99798.69;4989038;28;20061;-74
2023/10/30 00:48:50;;;;;;;9.68;2.25;;;;;;;9.44;100.00;99796.97;4988852;28;20022;-74
2023/10/30 00:51:16;;;;;;;9.13;1.50;;;;;;;9.43;100.00;99802.53;5031205;28;20058;-75
2023/10/30 00:53:42;;;;;;;10.65;3.13;;;;;;;9.38;100.00;99800.19;4995633;28;20038;-75
2023/10/30 00:56:07;;;;;;;7.13;1.45;;;;;;;9.38;100.00;99802.91;4988846;28;20387;-74
2023/10/30 00:58:34;;;;;;;9.00;1.58;;;;;;;9.36;100.00;99809.44;4987377;28;20096;-74
2023/10/30 01:01:00;;;;;;;13.00;2.72;;;;;;;9.35;100.00;99814.03;4989625;28;20089;-74
2023/10/30 01:03:25;;;;;;;9.43;1.90;;;;;;;9.39;100.00;99823.63;4987255;28;20422;-73
2023/10/30 01:06:01;;;;;;;8.70;1.58;;;;;;;9.47;100.00;99819.44;5003668;28;20497;-74
2023/10/30 01:08:26;;;;;;;15.68;2.15;;;;;;;9.45;100.00;99831.25;4993539;28;20342;-74
2023/10/30 01:10:55;;;;;;;11.73;2.15;;;;;;;9.46;100.00;99832.09;5006433;28;20040;-74
2023/10/30 01:13:21;;;;;;;7.57;2.05;;;;;;;9.49;100.00;99829.16;4996632;28;20041;-74
2023/10/30 01:15:46;;;;;;;18.15;2.25;;;;;;;9.50;100.00;99835.44;4991016;28;20050;-75
2023/10/30 01:18:12;;;;;;;15.23;2.10;;;;;;;9.47;100.00;99838.44;4992153;28;20533;-75
2023/10/30 01:20:38;;;;;;;10.48;2.83;;;;;;;9.46;100.00;99842.97;4974669;28;20036;-75
2023/10/30 01:23:03;;;;;;;13.93;2.10;;;;;;;9.47;100.00;99838.44;5023994;28;20049;-74
2023/10/30 01:25:29;;;;;;;7.95;2.00;;;;;;;9.53;100.00;99835.19;4992753;28;20026;-75
2023/10/30 01:27:54;;;;;;;16.27;2.53;;;;;;;9.55;100.00;99844.06;4990790;28;20171;-74
2023/10/30 01:30:20;;;;;;;10.88;1.88;;;;;;;9.55;100.00;99842.19;5030670;28;20037;-72
2023/10/30 01:32:46;;;;;;;8.93;2.90;;;;;;;9.55;100.00;99836.75;5011930;28;20045;-74
2023/10/30 01:35:11;;;;;;;3.78;1.55;;;;;;;9.56;100.00;99829.47;4996550;28;20034;-74
2023/10/30 01:37:36;;;;;;;6.60;2.05;;;;;;;9.59;100.00;99832.81;4991745;28;20042;-74
2023/10/30 01:40:02;;;;;;;10.88;1.77;;;;;;;9.58;100.00;99828.38;4992282;28;20478;-74
2023/10/30 01:42:28;;;;;;;15.48;2.53;;;;;;;9.55;100.00;99822.34;4992323;28;20034;-74
2023/10/30 01:44:55;;;;;;;7.90;1.80;;;;;;;9.56;100.00;99827.66;5026909;28;20042;-74
2023/10/30 01:47:21;;;;;;;8.43;1.95;;;;;;;9.57;100.00;99828.50;5010112;28;20030;-73
2023/10/30 01:49:48;;;;;;;9.30;2.13;;;;;;;9.59;100.00;99829.22;4999524;28;20076;-74
2023/10/30 01:52:15;;;;;;;8.18;1.88;;;;;;;9.59;100.00;99829.22;4990203;28;20125;-75
2023/10/30 01:54:43;;;;;;;9.90;1.80;;;;;;;9.63;100.00;99836.13;4990407;28;20037;-74
2023/10/30 01:57:09;;;;;;;8.52;1.98;;;;;;;9.60;100.00;99839.09;4991417;28;20050;-74
2023/10/30 01:59:34;;;;;;;12.20;2.00;;;;;;;9.59;100.00;99840.09;5023073;28;20348;-74
2023/10/30 02:02:00;;;;;;;5.40;1.65;;;;;;;9.60;100.00;99849.94;4991770;28;20061;-74
2023/10/30 02:04:25;;;;;;;14.82;2.33;;;;;;;9.60;100.00;99842.66;4990693;28;20104;-74
2023/10/30 02:06:50;;;;;;;13.60;2.67;;;;;;;9.62;100.00;99848.84;4991372;28;20058;-75
2023/10/30 02:09:16;;;;;;;9.45;1.48;;;;;;;9.64;100.00;99844.13;4991475;28;20037;-74
2023/10/30 02:11:41;;;;;;;14.93;2.05;;;;;;;9.64;100.00;99846.00;4991510;28;20038;-73
2023/10/30 02:14:07;;;;;;;12.90;2.05;;;;;;;9.64;100.00;99849.56;5022752;28;20027;-73
2023/10/30 02:16:32;;;;;;;8.25;1.65;;;;;;;9.67;100.00;99848.47;4989879;28;20099;-74
2023/10/30 02:18:57;;;;;;;13.27;1.67;;;;;;;9.69;100.00;99847.31;4991884;28;20042;-73
2023/10/30 02:21:23;;;;;;;7.40;1.38;;;;;;;9.68;100.00;99851.03;4990965;28;20117;-73
2023/10/30 02:23:49;;;;;;;9.35;1.55;;;;;;;9.66;100.00;99850.31;4991610;28;20495;-74
2023/10/30 02:26:15;;;;;;;8.52;1.60;;;;;;;9.67;100.00;99852.03;4990642;28;20030;-74
2023/10/30 02:28:40;;;;;;;13.55;2.28;;;;;;;9.66;100.00;99842.16;4989599;28;20446;-74
2023/10/30 02:31:06;;;;;;;11.35;1.55;;;;;;;9.68;100.00;99844.75;5022713;28;20453;-74
2023/10/30 02:33:32;;;;;;;6.53;1.77;;;;;;;9.67;100.00;99843.03;4989628;28;21914;-74
2023/10/30 02:35:57;;;;;;;6.90;1.70;;;;;;;9.65;100.00;99840.44;4991032;28;20030;-74
2023/10/30 02:38:22;;;;;;;8.65;1.55;;;;;;;9.66;100.00;99835.88;4990890;28;20046;-74
2023/10/30 02:40:48;;;;;;;10.88;1.85;;;;;;;9.64;100.00;99836.00;5022169;28;20054;-74
2023/10/30 02:43:13;;;;;;;11.98;1.60;;;;;;;9.64;100.00;99835.13;4990910;28;20030;-74
2023/10/30 02:45:38;;;;;;;10.48;2.05;;;;;;;9.63;100.00;99834.28;4989469;28;20065;-74
2023/10/30 02:48:04;;;;;;;17.20;2.53;;;;;;;9.63;100.00;99833.41;4990809;28;20083;-74
2023/10/30 02:50:30;;;;;;;4.90;1.58;;;;;;;9.63;100.00;99828.84;5021974;28;20041;-71
2023/10/30 02:52:56;;;;;;;10.20;2.25;;;;;;;9.66;100.00;99825.03;4991196;28;20115;-73
2023/10/30 02:55:22;;;;;;;8.07;2.65;;;;;;;9.64;100.00;99826.97;5000839;28;20088;-73
2023/10/30 02:57:48;;;;;;;12.68;1.50;;;;;;;9.67;100.00;99824.03;5008605;28;20069;-74
2023/10/30 03:00:13;;;;;;;11.10;2.17;;;;;;;9.69;100.00;99825.59;5008598;28;20536;-74
2023/10/30 03:02:39;;;;;;;11.43;1.60;;;;;;;9.71;100.00;99834.50;4995979;28;20050;-75
2023/10/30 03:05:05;;;;;;;9.13;1.85;;;;;;;9.71;100.00;99828.19;4997532;28;20138;-74
2023/10/30 03:07:30;;;;;;;5.20;1.27;;;;;;;9.70;100.00;99829.19;5022007;28;20104;-71
2023/10/30 03:09:55;;;;;;;7.20;2.05;;;;;;;9.67;100.00;99822.16;4990900;28;20402;-75
2023/10/30 03:12:21;;;;;;;10.50;1.80;;;;;;;9.67;100.00;99834.88;4990427;28;20109;-74
2023/10/30 03:14:47;;;;;;;9.07;1.63;;;;;;;9.67;100.00;99840.31;4990473;28;20077;-75
2023/10/30 03:17:13;;;;;;;8.68;1.38;;;;;;;9.68;100.00;99847.47;4990034;28;20070;-74
2023/10/30 03:19:38;;;;;;;15.30;2.78;;;;;;;9.69;100.00;99851.88;5005837;28;20040;-73
2023/10/30 03:22:03;;;;;;;11.43;1.95;;;;;;;9.69;100.00;99851.88;4990177;28;20093;-74
2023/10/30 03:24:29;;;;;;;14.93;1.98;;;;;;;9.68;100.00;99853.75;4990623;28;20042;-74
2023/10/30 03:26:55;;;;;;;7.85;1.85;;;;;;;9.68;100.00;99855.59;5009787;28;20405;-74
2023/10/30 03:29:20;;;;;;;8.30;1.85;;;;;;;9.67;100.00;99860.19;5008155;28;20049;-74
2023/10/30 03:31:46;;;;;;;11.05;2.50;;;;;;;9.65;100.00;99850.44;4989831;28;20039;-74
2023/10/30 03:34:11;;;;;;;5.43;1.35;;;;;;;9.67;100.00;99851.19;4989794;28;20030;-73
2023/10/30 03:36:37;;;;;;;10.32;2.70;;;;;;;9.64;100.00;99840.56;4988668;28;20148;-73
2023/10/30 03:39:04;;;;;;;11.00;1.73;;;;;;;9.63;100.00;99842.41;5021281;28;20066;-73
2023/10/30 03:41:29;;;;;;;13.60;3.05;;;;;;;9.66;100.00;99838.59;5021490;28;20030;-74
2023/10/30 03:43:54;;;;;;;8.27;2.10;;;;;;;9.69;100.00;99843.75;5028957;28;20037;-74
2023/10/30 03:46:20;;;;;;;8.35;2.00;;;;;;;9.68;100.00;99840.16;5008185;28;20026;-74
2023/10/30 03:48:45;;;;;;;8.20;1.67;;;;;;;9.69;100.00;99844.59;5007664;28;20061;-74
2023/10/30 03:51:10;;;;;;;8.57;2.15;;;;;;;9.69;100.00;99841.03;4989252;28;20151;-73
2023/10/30 03:53:35;;;;;;;12.48;2.05;;;;;;;9.67;100.00;99843.88;4988196;28;20085;-74
2023/10/30 03:56:06;;;;;;;15.32;2.20;;;;;;;9.64;100.00;99849.56;4989639;28;20041;-74
2023/10/30 03:58:31;;;;;;;6.07;2.03;;;;;;;9.62;100.00;99845.28;4989668;28;20057;-71
2023/10/30 04:01:04;;;;;;;9.90;1.80;;;;;;;9.60;100.00;99848.09;4989752;28;20038;-74
2023/10/30 04:03:29;;;;;;;;;;;;;;;9.63;100.00;99850.56;4990470;28;20030;-74
2023/10/30 04:05:59;;;;;;;7.43;1.48;;;;;;;9.59;100.00;99849.09;4988958;28;19929;-75
2023/10/30 04:08:25;;;;;;;5.15;1.42;;;;;;;9.58;100.00;99849.22;4989482;28;20046;-74
2023/10/30 04:10:50;;;;;;;10.05;2.10;;;;;;;9.54;100.00;99848.63;5003145;28;20040;-74
2023/10/30 04:13:15;;;;;;;9.55;2.10;;;;;;;9.50;100.00;99852.59;5007711;28;20041;-74
2023/10/30 04:15:41;;;;;;;11.27;2.58;;;;;;;9.45;100.00;99842.13;5021213;28;20026;-74
2023/10/30 04:18:06;;;;;;;7.95;2.55;;;;;;;9.45;100.00;99841.25;4989700;28;20034;-73
2023/10/30 04:20:32;;;;;;;10.13;1.73;;;;;;;9.41;100.00;99842.50;4994788;28;20508;-71
2023/10/30 04:22:58;;;;;;;3.55;1.55;;;;;;;9.36;100.00;99839.31;5009438;28;20454;-73
2023/10/30 04:25:23;;;;;;;9.13;1.98;;;;;;;9.34;100.00;99847.59;5008934;28;20116;-74
2023/10/30 04:27:48;;;;;;;6.85;1.88;;;;;;;9.29;100.00;99844.41;5008847;28;20474;-74
2023/10/30 04:30:14;;;;;;;6.22;1.77;;;;;;;9.28;100.00;99849.94;5034296;28;20439;-73
2023/10/30 04:32:39;;;;;;;9.85;1.73;;;;;;;9.26;100.00;99847.34;4989177;28;20046;-74
2023/10/30 04:35:04;;;;;;;3.88;1.50;;;;;;;9.25;100.00;99850.22;4996344;28;20060;-74
2023/10/30 04:37:30;;;;;;;25.05;4.60;;;;;;;9.21;100.00;99844.16;4988186;28;20130;-74
2023/10/30 04:39:56;;;;;;;12.82;2.10;;;;;;;9.16;100.00;99847.25;4987583;28;20042;-74
2023/10/30 04:42:22;;;;;;;18.17;2.08;;;;;;;9.17;100.00;99854.41;4989238;28;20073;-73
2023/10/30 04:44:47;;;;;;;11.98;1.85;;;;;;;9.15;100.00;99861.81;4987564;28;20367;-74
2023/10/30 04:47:13;;;;;;;13.10;2.55;;;;;;;9.15;100.00;99858.25;5020565;28;20037;-73
2023/10/30 04:49:38;;;;;;;14.50;2.38;;;;;;;9.14;100.00;99859.25;5031400;28;20048;-73
2023/10/30 04:52:04;;;;;;;9.63;1.98;;;;;;;9.09;100.00;99856.91;4992808;28;20226;-74
2023/10/30 04:54:29;;;;;;;14.27;2.10;;;;;;;9.10;100.00;99865.91;4993355;28;20035;-74
2023/10/30 04:56:54;;;;;;;7.38;1.40;;;;;;;9.16;100.00;99863.53;5002981;28;20120;-74
2023/10/30 04:59:20;;;;;;;9.68;2.05;;;;;;;9.13;100.00;99852.06;5012480;28;20042;-74
2023/10/30 05:01:45;;;;;;;6.22;2.25;;;;;;;9.10;100.00;99838.78;5012250;28;20080;-74
2023/10/30 05:04:10;;;;;;;13.38;2.13;;;;;;;9.09;100.00;99846.06;4998289;28;20114;-74
2023/10/30 05:06:36;;;;;;;6.97;1.50;;;;;;;9.07;100.00;99848.03;4991953;28;20046;-74
2023/10/30 05:09:03;;;;;;;5.18;1.85;;;;;;;9.06;100.00;99840.88;4992621;28;20045;-71
2023/10/30 05:11:28;;;;;;;11.45;1.60;;;;;;;9.05;100.00;99838.28;5024179;28;20022;-73
2023/10/30 05:13:54;;;;;;;11.05;1.67;;;;;;;9.06;100.00;99842.72;4991052;28;20052;-73
2023/10/30 05:16:19;;;;;;;11.07;2.47;;;;;;;9.06;100.00;99846.31;4992616;28;20442;-73
2023/10/30 05:18:45;;;;;;;6.57;1.42;;;;;;;9.06;100.00;99850.88;4992436;28;20557;-74
2023/10/30 05:21:10;;;;;;;11.85;1.95;;;;;;;9.07;100.00;99852.59;4997454;28;20030;-74
2023/10/30 05:23:35;;;;;;;7.05;1.70;;;;;;;9.07;100.00;99850.72;5023652;28;20038;-74
2023/10/30 05:26:01;;;;;;;11.77;1.98;;;;;;;9.05;100.00;99850.00;4992653;28;20045;-74
2023/10/30 05:28:26;;;;;;;9.93;1.83;;;;;;;9.02;100.00;99849.38;4992420;28;20042;-73
2023/10/30 05:30:51;;;;;;;13.18;1.98;;;;;;;9.01;100.00;99847.66;4991041;28;20034;-74
2023/10/30 05:33:17;;;;;;;10.60;2.45;;;;;;;8.97;100.00;99838.06;4992512;28;20387;-73
2023/10/30 05:35:43;;;;;;;9.48;1.77;;;;;;;8.92;100.00;99824.88;4998974;28;20080;-74
2023/10/30 05:38:08;;;;;;;9.45;2.15;;;;;;;8.92;100.00;99833.00;5010636;28;20034;-74
2023/10/30 05:40:34;;;;;;;8.50;1.63;;;;;;;8.90;100.00;99829.53;5011848;28;20501;-74
2023/10/30 05:42:59;;;;;;;10.27;1.90;;;;;;;8.90;100.00;99834.97;5009170;28;20582;-74
2023/10/30 05:45:25;;;;;;;12.07;2.28;;;;;;;8.91;100.00;99828.56;5011312;28;20540;-73
2023/10/30 05:47:50;;;;;;;10.88;1.77;;;;;;;8.88;100.00;99843.25;5006873;28;20075;-73
2023/10/30 05:50:16;;;;;;;5.60;1.70;;;;;;;8.88;100.00;99837.81;4999232;28;20041;-73
2023/10/30 05:52:41;;;;;;;8.23;1.70;;;;;;;8.86;100.00;99844.34;4991878;28;20049;-73
2023/10/30 05:55:08;;;;;;;9.50;2.28;;;;;;;8.82;100.00;99834.75;4991689;28;20030;-73
2023/10/30 05:57:34;;;;;;;25.08;2.60;;;;;;;8.81;100.00;99831.19;4991806;28;20050;-73
2023/10/30 06:00:00;;;;;;;8.05;2.00;;;;;;;8.79;100.00;99819.56;4991495;28;20045;-73
2023/10/30 06:02:26;;;;;;;7.85;1.90;;;;;;;8.75;100.00;99825.38;4996473;28;20025;-73
2023/10/30 06:04:51;;;;;;;11.68;2.10;;;;;;;8.72;100.00;99829.22;5001226;28;20053;-73
2023/10/30 06:07:16;;;;;;;13.80;2.13;;;;;;;8.68;100.00;99820.47;4991290;28;20050;-74
2023/10/30 06:09:43;;;;;;;5.93;1.52;;;;;;;8.68;100.00;99828.59;4990386;28;20046;-73
2023/10/30 06:12:09;;;;;;;14.45;2.13;;;;;;;8.63;100.00;99830.81;4991716;28;20041;-74
2023/10/30 06:14:34;;;;;;;9.73;1.98;;;;;;;8.62;100.00;99837.19;4991580;28;20375;-74
2023/10/30 06:17:01;;;;;;;6.10;1.77;;;;;;;8.58;100.00;99834.88;4995586;28;20084;-74
2023/10/30 06:19:28;;;;;;;9.20;1.67;;;;;;;8.54;100.00;99836.13;5004177;28;20545;-73
2023/10/30 06:21:53;;;;;;;7.88;1.92;;;;;;;8.52;100.00;99838.94;5006395;28;20494;-74
2023/10/30 06:24:19;;;;;;;7.57;1.48;;;;;;;8.48;100.00;99861.84;5010940;28;20042;-74
2023/10/30 06:26:44;;;;;;;6.63;1.85;;;;;;;8.46;100.00;99853.00;4981988;28;20112;-74
2023/10/30 06:29:10;;;;;;;8.38;2.25;;;;;;;8.41;100.00;99857.91;4989453;28;20041;-73
2023/10/30 06:31:35;;;;;;;10.20;2.03;;;;;;;8.38;100.00;99863.56;4991222;28;20038;-72
2023/10/30 06:34:01;;;;;;;10.30;1.65;;;;;;;8.32;100.00;99864.88;4993267;28;20054;-73
2023/10/30 06:36:27;;;;;;;8.07;1.65;;;;;;;8.28;100.00;99868.81;4995700;28;20379;-73
2023/10/30 06:38:54;;;;;;;8.68;2.00;;;;;;;8.31;100.00;99878.56;4990859;28;20022;-73
2023/10/30 06:41:19;;;;;;;17.25;3.97;;;;;;;8.31;100.00;99876.72;5023268;28;20586;-73
2023/10/30 06:43:45;;;;;;;12.52;2.05;;;;;;;8.31;100.00;99878.56;5003182;28;20125;-74
2023/10/30 06:46:10;;;;;;;10.30;3.70;;;;;;;8.38;100.00;99888.81;5003757;28;20034;-73
2023/10/30 06:48:35;;;;;;;12.85;2.55;;;;;;;8.36;100.00;99879.97;4989375;28;20124;-73
2023/10/30 06:51:01;;;;;;;10.52;2.00;;;;;;;8.33;100.00;99888.28;4989383;28;20466;-73
2023/10/30 06:53:26;;;;;;;13.40;2.58;;;;;;;8.38;100.00;99882.53;4996741;28;20112;-73
2023/10/30 06:55:52;;;;;;;12.38;3.28;;;;;;;8.39;100.00;99887.84;4991473;28;20038;-73
2023/10/30 06:58:18;;;;;;;13.25;2.67;;;;;;;8.43;100.00;99889.31;4997512;28;20366;-73
2023/10/30 07:00:44;;;;;;;9.43;1.80;;;;;;;8.50;100.00;99889.72;4990079;28;20029;-73
2023/10/30 07:03:10;;;;;;;18.52;2.85;;;;;;;8.57;100.00;99888.22;4989902;28;20044;-72
2023/10/30 07:05:35;;;;;;;13.02;2.28;;;;;;;8.63;100.00;99886.91;4997761;28;20362;-72
2023/10/30 07:08:01;;;;;;;14.98;2.67;;;;;;;8.67;100.00;99878.41;4990158;28;20062;-73
2023/10/30 07:10:26;;;;;;;11.88;2.22;;;;;;;8.72;100.00;99880.75;4997132;28;20034;-73
2023/10/30 07:12:51;;;;;;;11.20;2.17;;;;;;;8.81;100.00;99888.13;4993238;28;20035;-73
2023/10/30 07:15:17;;;;;;;10.40;2.35;;;;;;;8.86;100.00;99891.34;4998936;28;20105;-73
2023/10/30 07:17:42;;;;;;;12.73;2.47;;;;;;;8.93;100.00;99888.97;5001782;28;20080;-73
2023/10/30 07:20:09;;;;;;;13.48;3.10;;;;;;;9.03;100.00;99887.22;4990391;28;20075;-73
2023/10/30 07:22:36;;;;;;;10.02;2.63;;;;;;;9.08;100.00;99886.88;4990021;28;20486;-73
2023/10/30 07:25:01;;;;;;;11.10;2.35;;;;;;;9.12;100.00;99891.91;4991358;28;20476;-72
2023/10/30 07:27:27;;;;;;;16.30;2.40;;;;;;;9.17;100.00;99895.09;5041618;28;20046;-74
2023/10/30 07:29:52;;;;;;;6.93;2.00;;;;;;;9.20;100.00;99897.59;4997576;28;20038;-74
2023/10/30 07:32:18;;;;;;;18.67;2.90;;;;;;;9.22;100.00;99902.00;5003896;28;20121;-73
2023/10/30 07:34:44;;;;;;;17.42;3.58;;;;;;;9.22;100.00;99913.72;5006769;28;20030;-73
2023/10/30 07:37:10;;;;;;;6.90;1.98;;;;;;;9.25;100.00;99913.50;4989705;28;20046;-73
2023/10/30 07:39:35;;;;;;;16.38;2.58;;;;;;;9.27;100.00;99914.22;4994371;28;20427;-73
2023/10/30 07:42:01;;;;;;;14.40;2.20;;;;;;;9.34;100.00;99922.72;5009475;28;20038;-73
2023/10/30 07:44:26;;;;;;;17.58;5.43;;;;;;;9.41;100.00;99923.94;5002489;28;20015;-72
2023/10/30 07:46:52;;;;;;;11.48;3.65;;;;;;;9.50;100.00;99935.88;4989664;28;20042;-73
2023/10/30 07:49:17;;;;;;;9.77;2.60;;;;;;;9.53;100.00;99919.34;4989338;28;20030;-72
2023/10/30 07:51:43;;;;;;;7.57;1.80;;;;;;;9.57;100.00;99918.13;5003503;28;20033;-73
2023/10/30 07:54:08;;;;;;;16.75;2.72;;;;;;;9.63;100.00;99920.31;5000102;28;20045;-72
2023/10/30 07:56:33;;;;;;;6.57;1.67;;;;;;;9.71;100.00;99920.53;4996677;28;20113;-74
2023/10/30 07:58:59;;;;;;;8.10;1.90;;;;;;;9.81;100.00;99913.34;4990175;28;20026;-73
2023/10/30 08:01:25;;;;;;;7.90;1.60;;;;;;;9.90;100.00;99920.72;5000561;28;20113;-73
2023/10/30 08:03:50;;;;;;;14.68;2.30;;;;;;;9.93;100.00;99916.84;4987530;28;20039;-74
2023/10/30 08:06:15;;;;;;;13.40;2.30;;;;;;;9.97;100.00;99921.03;4994571;28;20509;-73
2023/10/30 08:08:41;;;;;;;12.45;1.77;;;;;;;10.00;100.00;99914.50;4995595;28;20062;-74
2023/10/30 08:11:06;;;;;;;8.93;1.83;;;;;;;10.08;100.00;99917.44;5006594;28;20037;-73
2023/10/30 08:13:33;;;;;;;15.18;3.00;;;;;;;10.15;100.00;99922.19;4994399;28;20064;-73
2023/10/30 08:15:58;;;;;;;13.38;2.08;;;;;;;10.23;100.00;99926.97;4989922;28;20073;-73
2023/10/30 08:18:25;;;;;;;12.57;1.95;;;;;;;10.30;100.00;99935.50;4987740;28;20364;-74
2023/10/30 08:20:51;;;;;;;12.00;2.25;;;;;;;10.39;100.00;99926.53;4996666;28;20034;-74
2023/10/30 08:23:16;;;;;;;5.57;1.65;;;;;;;10.46;100.00;99923.19;5007597;28;20359;-74
2023/10/30 08:25:42;;;;;;;9.07;1.92;;;;;;;10.55;100.00;99931.53;5009214;28;20108;-73
2023/10/30 08:28:08;;;;;;;9.27;2.15;;;;;;;10.63;100.00;99929.00;5001481;28;20077;-73
2023/10/30 08:30:34;;;;;;;14.95;2.35;;;;;;;10.75;100.00;99937.94;4996591;28;20506;-74
2023/10/30 08:33:03;;;;;;;10.68;2.58;;;;;;;10.81;100.00;99943.69;4987855;28;20382;-73
2023/10/30 08:35:29;;;;;;;15.80;2.63;;;;;;;10.87;100.00;99943.19;4989380;28;20100;-73
2023/10/30 08:37:55;;;;;;;10.57;2.25;;;;;;;10.91;100.00;99947.34;5003454;28;20466;-74
2023/10/30 08:40:20;;;;;;;11.45;2.40;;;;;;;10.99;100.00;99944.78;5008632;28;20384;-73
2023/10/30 08:42:46;;;;;;;10.82;3.33;;;;;;;11.06;100.00;99925.22;5038746;28;20034;-73
2023/10/30 08:45:12;;;;;;;12.68;2.72;;;;;;;11.13;100.00;99931.81;4989077;28;20112;-73
2023/10/30 08:47:38;;;;;;;8.98;1.75;;;;;;;11.20;100.00;99925.69;5002011;28;20084;-73
2023/10/30 08:50:05;;;;;;;8.50;1.88;;;;;;;11.27;100.00;99920.56;4996699;28;20044;-73
2023/10/30 08:52:30;;;;;;;9.20;2.50;;;;;;;11.36;100.00;99933.34;4997634;28;20127;-73
2023/10/30 08:54:56;;;;;;;15.15;2.78;;;;;;;11.42;100.00;99935.53;5008270;28;20093;-73
2023/10/30 08:57:21;;;;;;;9.45;2.60;;;;;;;11.50;100.00;99930.22;4998546;28;20049;-74
2023/10/30 08:59:47;;;;;;;9.77;2.35;;;;;;;11.60;100.00;99930.25;4999534;28;20117;-75
2023/10/30 09:02:12;;;;;;;7.82;2.20;;;;;;;11.73;100.00;99928.13;4987356;28;20479;-75
2023/10/30 09:04:38;;;;;;;12.73;2.13;;;;;;;11.78;100.00;99921.38;4992369;28;20478;-75
2023/10/30 09:07:03;;;;;;;10.27;2.15;;;;;;;11.86;100.00;99936.06;4988297;28;20133;-74
2023/10/30 09:09:29;;;;;;;7.88;1.83;;;;;;;11.92;100.00;99942.81;4993878;28;20114;-74
2023/10/30 09:11:55;;;;;;;16.50;2.83;;;;;;;11.99;100.00;99941.25;4989970;28;20279;-76
2023/10/30 09:14:20;;;;;;;9.25;1.80;;;;;;;12.05;100.00;99950.72;4992666;28;20503;-73
2023/10/30 09:16:45;;;;;;;11.15;2.13;;;;;;;12.06;100.00;99934.19;4996152;28;20038;-75
2023/10/30 09:19:11;;;;;;;5.82;1.33;;;;;;;12.11;100.00;99942.81;4990600;28;20038;-72
2023/10/30 09:21:36;;;;;;;6.50;1.63;;;;;;;12.17;100.00;99947.72;4993420;28;20068;-72
2023/10/30 09:24:02;;;;;;;7.65;2.55;;;;;;;12.22;100.00;99944.56;4988816;28;20034;-73
2023/10/30 09:26:28;;;;;;;9.65;1.70;;;;;;;12.24;100.00;99935.19;4994113;28;20120;-72
2023/10/30 09:28:54;;;;;;;11.57;2.10;;;;;;;12.27;100.00;99923.16;5008361;28;20042;-72
2023/10/30 09:31:20;;;;;;;6.28;1.60;;;;;;;12.27;100.00;99931.34;5023757;28;20044;-73
2023/10/30 09:33:45;;;;;;;10.48;1.95;;;;;;;12.29;100.00;99926.59;4990780;28;20034;-73
2023/10/30 09:36:10;;;;;;;14.77;1.75;;;;;;;12.32;100.00;99909.94;5004923;28;20100;-73
2023/10/30 09:38:36;;;;;;;6.75;1.63;;;;;;;12.41;100.00;99919.13;4992331;28;20136;-73
2023/10/30 09:41:05;;;;;;;9.88;1.67;;;;;;;12.44;100.00;99922.41;5023938;28;20073;-73
2023/10/30 09:43:33;;;;;;;6.57;1.70;;;;;;;12.48;100.00;99933.88;4992628;28;20046;-73
2023/10/30 09:46:00;;;;;;;7.72;1.90;;;;;;;12.48;100.00;99920.25;4992769;28;20030;-73
2023/10/30 09:48:28;;;;;;;7.22;1.50;;;;;;;12.50;100.00;99918.25;4992024;28;20424;-73
2023/10/30 09:50:54;;;;;;;7.45;2.00;;;;;;;12.52;100.00;99919.81;4999656;28;20115;-73
2023/10/30 09:53:20;;;;;;;7.85;1.55;;;;;;;12.52;100.00;99908.91;5011496;28;20450;-73
2023/10/30 09:55:47;;;;;;;7.88;1.52;;;;;;;12.55;100.00;99901.44;5011521;28;20046;-74
2023/10/30 09:58:13;;;;;;;5.80;1.63;;;;;;;12.56;100.00;99903.16;5009306;28;20022;-73
2023/10/30 10:00:38;;;;;;;11.73;1.70;;;;;;;12.56;100.00;99901.28;5023047;28;20042;-73
2023/10/30 10:03:07;;;;;;;5.85;1.60;;;;;;;12.56;100.00;99898.56;4992008;28;20022;-73
2023/10/30 10:05:32;;;;;;;7.75;1.75;;;;;;;12.57;100.00;99893.97;4991329;28;20467;-73
2023/10/30 10:07:58;;;;;;;9.27;2.10;;;;;;;12.57;100.00;99892.09;4991764;28;20053;-73
2023/10/30 10:10:24;;;;;;;8.65;1.52;;;;;;;12.59;100.00;99890.09;4991814;28;20039;-73
2023/10/30 10:12:50;;;;;;;5.30;1.50;;;;;;;12.61;100.00;99892.66;5000512;28;20474;-73
2023/10/30 10:15:17;;;;;;;7.20;1.77;;;;;;;12.62;100.00;99895.22;5011257;28;20045;-73
2023/10/30 10:17:51;;;;;;;9.45;2.10;;;;;;;12.65;100.00;99892.22;5009807;28;20053;-73
2023/10/30 10:20:17;;;;;;;12.95;1.90;;;;;;;12.72;100.00;99889.75;4998709;28;20049;-72
2023/10/30 10:22:42;;;;;;;5.88;1.55;;;;;;;12.76;100.00;99889.28;4991372;28;20508;-72
2023/10/30 10:25:10;;;;;;;5.80;1.77;;;;;;;12.81;100.00;99891.56;4991853;28;20022;-73
2023/10/30 10:27:37;;;;;;;11.77;1.85;;;;;;;12.83;100.00;99892.31;4998151;28;20117;-73
2023/10/30 10:30:03;;;;;;;6.95;1.48;;;;;;;12.88;100.00;99897.31;5010753;28;20534;-73
2023/10/30 10:32:28;;;;;;;9.10;1.60;;;;;;;12.89;100.00;99899.03;5007235;28;20484;-72
2023/10/30 10:34:57;;;;;;;8.50;1.40;;;;;;;12.93;100.00;99893.13;5001082;28;20050;-72
2023/10/30 10:37:23;;;;;;;7.30;1.58;;;;;;;12.98;100.00;99895.41;5008701;28;20018;-72
2023/10/30 10:39:53;;;;;;;4.55;1.42;;;;;;;13.06;100.00;99895.53;5005881;28;20375;-72
2023/10/30 10:42:26;;;;;;;8.88;1.52;;;;;;;13.09;100.00;99895.19;4991048;28;20042;-72
2023/10/30 10:44:54;;;;;;;6.93;1.58;;;;;;;13.10;100.00;99896.91;4991430;28;20076;-72
2023/10/30 10:47:20;;;;;;;9.30;1.65;;;;;;;13.12;100.00;99885.88;4990448;28;20053;-72
2023/10/30 10:49:47;;;;;;;5.95;2.13;;;;;;;13.11;100.00;99892.34;4991173;28;20486;-72
2023/10/30 10:52:16;;;;;;;6.78;1.85;;;;;;;13.09;100.00;99891.63;4989369;28;20084;-72
2023/10/30 10:54:54;;;;;;;8.48;1.75;;;;;;;13.13;100.00;99890.31;4990566;28;20077;-72
2023/10/30 10:57:21;;;;;;;5.20;1.67;;;;;;;13.12;100.00;99885.88;4990460;28;20057;-72
2023/10/30 10:59:55;;;;;;;12.57;1.75;;;;;;;13.12;100.00;99877.66;4990526;28;20089;-73
2023/10/30 11:02:28;;;;;;;6.20;1.60;;;;;;;13.12;100.00;99883.13;4990796;28;20116;-72
2023/10/30 11:04:54;;;;;;;7.68;1.20;;;;;;;13.14;100.00;99884.69;4997964;28;20052;-72
2023/10/30 11:07:35;;;;;;;5.50;1.23;;;;;;;13.21;100.00;99882.22;4990536;28;20129;-72
2023/10/30 11:10:27;;;;;;;4.10;1.33;;;;;;;13.25;100.00;99873.59;5000815;28;20045;-73
2023/10/30 11:13:27;;;;;;;8.40;1.35;;;;;;;13.29;100.00;99868.72;5007487;28;20046;-72
2023/10/30 11:15:59;;;;;;;4.47;1.35;;;;;;;13.28;100.00;99865.09;4989996;28;20042;-73
2023/10/30 11:18:27;;;;;;;5.90;1.33;;;;;;;13.30;100.00;99864.09;4990006;28;20072;-73
2023/10/30 11:21:15;;;;;;;6.75;1.38;;;;;;;13.36;100.00;99855.28;4996989;28;20117;-72